createdAt,value
2018-09-28T00:01:52.719Z,24.63
2018-09-28T00:04:20.582Z,28.20
2018-09-28T00:06:47.962Z,30.50
2018-09-28T00:09:15.316Z,31.52
2018-09-28T00:11:42.944Z,32.60
2018-09-28T00:14:10.613Z,35.88
2018-09-28T00:16:39.317Z,40.43
2018-09-28T00:19:06.958Z,37.63
2018-09-28T00:21:34.529Z,32.70
2018-09-28T00:24:02.285Z,34.10
2018-09-28T00:26:29.642Z,29.48
2018-09-28T00:28:57.028Z,26.95
2018-09-28T00:31:24.856Z,23.40
2018-09-28T00:33:53.258Z,21.20
2018-09-28T00:36:20.853Z,20.55
2018-09-28T00:38:48.570Z,18.02
2018-09-28T00:41:17.046Z,18.90
2018-09-28T00:43:44.711Z,15.95
2018-09-28T00:46:12.826Z,15.58
2018-09-28T00:48:40.444Z,16.10
2018-09-28T00:51:08.080Z,14.35
2018-09-28T00:53:35.450Z,9.98
2018-09-28T00:56:03.281Z,8.40
2018-09-28T00:58:30.667Z,7.90
2018-09-28T01:00:58.546Z,5.50
2018-09-28T01:03:26.396Z,4.60
2018-09-28T01:05:54.046Z,4.50
2018-09-28T01:08:21.472Z,4.42
2018-09-28T01:10:49.105Z,4.33
2018-09-28T01:13:17.229Z,4.25
2018-09-28T01:15:44.580Z,3.90
2018-09-28T01:18:11.957Z,3.90
2018-09-28T01:20:39.564Z,3.80
2018-09-28T01:23:06.884Z,3.50
2018-09-28T01:25:34.979Z,3.75
2018-09-28T01:28:02.324Z,3.62
2018-09-28T01:30:29.749Z,3.42
2018-09-28T01:32:57.380Z,3.92
2018-09-28T01:35:26.029Z,3.77
2018-09-28T01:37:53.469Z,3.87
2018-09-28T01:40:21.121Z,3.60
2018-09-28T01:42:48.496Z,4.20
2018-09-28T01:45:16.091Z,3.90
2018-09-28T01:47:43.725Z,3.52
2018-09-28T01:50:11.351Z,3.70
2018-09-28T01:52:38.725Z,3.90
2018-09-28T01:55:06.374Z,3.87
2018-09-28T01:57:34.130Z,3.47
2018-09-28T02:00:02.400Z,3.87
2018-09-28T02:02:30.106Z,3.40
2018-09-28T02:04:57.498Z,3.60
2018-09-28T02:07:24.825Z,3.80
2018-09-28T02:09:53.509Z,3.45
2018-09-28T02:12:21.169Z,3.30
2018-09-28T02:14:48.821Z,3.10
2018-09-28T02:17:16.801Z,2.60
2018-09-28T02:19:44.360Z,2.10
2018-09-28T02:22:11.921Z,1.80
2018-09-28T02:24:39.714Z,1.72
2018-09-28T02:27:07.056Z,1.60
2018-09-28T02:29:36.240Z,1.50
2018-09-28T02:32:03.796Z,1.80
2018-09-28T02:34:31.190Z,1.62
2018-09-28T02:36:58.969Z,1.47
2018-09-28T02:39:26.612Z,1.50
2018-09-28T02:41:53.930Z,1.17
2018-09-28T02:44:21.269Z,1.60
2018-09-28T02:46:48.680Z,1.20
2018-09-28T02:49:16.328Z,1.60
2018-09-28T02:51:44.997Z,1.40
2018-09-28T02:54:12.329Z,1.45
2018-09-28T02:56:39.662Z,1.60
2018-09-28T02:59:07.650Z,1.70
2018-09-28T03:01:35.356Z,1.80
2018-09-28T03:04:03.330Z,1.57
2018-09-28T03:06:30.683Z,1.50
2018-09-28T03:08:58.280Z,1.80
2018-09-28T03:11:25.896Z,1.70
2018-09-28T03:13:53.556Z,1.67
2018-09-28T03:16:21.238Z,1.40
2018-09-28T03:18:48.617Z,1.50
2018-09-28T03:21:16.921Z,1.70
2018-09-28T03:23:44.513Z,1.80
2018-09-28T03:26:12.277Z,1.80
2018-09-28T03:28:39.681Z,2.60
2018-09-28T03:31:07.078Z,3.25
2018-09-28T03:33:34.461Z,2.40
2018-09-28T03:36:02.932Z,1.90
2018-09-28T03:38:31.618Z,2.27
2018-09-28T03:40:58.905Z,2.52
2018-09-28T03:43:26.858Z,2.37
2018-09-28T03:45:54.297Z,2.27
2018-09-28T03:48:21.994Z,2.50
2018-09-28T03:50:49.373Z,2.33
2018-09-28T03:53:17.069Z,3.20
2018-09-28T03:55:44.604Z,2.62
2018-09-28T03:58:12.066Z,2.70
2018-09-28T04:00:39.688Z,4.17
2018-09-28T04:03:07.070Z,3.22
2018-09-28T04:05:34.674Z,2.98
2018-09-28T04:08:02.210Z,2.70
2018-09-28T04:10:29.894Z,3.00
2018-09-28T04:12:57.694Z,3.00
2018-09-28T04:15:25.025Z,2.90
2018-09-28T04:17:52.349Z,2.80
2018-09-28T04:20:20.237Z,3.08
2018-09-28T04:22:47.628Z,3.10
2018-09-28T04:25:16.006Z,3.02
2018-09-28T04:27:43.937Z,3.55
2018-09-28T04:30:11.564Z,3.60
2018-09-28T04:32:39.113Z,3.20
2018-09-28T04:35:06.925Z,3.45
2018-09-28T04:37:34.588Z,3.83
2018-09-28T04:40:02.564Z,3.50
2018-09-28T04:42:29.868Z,3.45
2018-09-28T04:44:57.191Z,3.65
2018-09-28T04:47:25.137Z,3.62
2018-09-28T04:49:52.757Z,2.80
2018-09-28T04:52:20.105Z,3.25
2018-09-28T04:54:47.452Z,3.67
2018-09-28T04:57:14.813Z,3.30
2018-09-28T04:59:42.241Z,3.50
2018-09-28T05:02:09.882Z,3.37
2018-09-28T05:04:37.306Z,3.10
2018-09-28T05:07:04.710Z,3.10
2018-09-28T05:09:32.461Z,48.75
2018-09-28T05:12:00.168Z,3.90
2018-09-28T05:14:27.566Z,3.95
2018-09-28T05:16:55.250Z,3.85
2018-09-28T05:19:23.534Z,3.42
2018-09-28T05:21:50.875Z,4.90
2018-09-28T05:24:19.050Z,5.62
2018-09-28T05:26:46.703Z,3.45
2018-09-28T05:29:15.400Z,3.42
2018-09-28T05:31:43.294Z,3.70
2018-09-28T05:34:10.878Z,4.12
2018-09-28T05:36:38.525Z,5.62
2018-09-28T05:39:07.070Z,3.90
2018-09-28T05:41:34.742Z,3.67
2018-09-28T05:44:02.814Z,3.40
2018-09-28T05:46:30.139Z,3.70
2018-09-28T05:48:57.845Z,3.93
2018-09-28T05:51:25.292Z,3.80
2018-09-28T05:53:52.938Z,3.52
2018-09-28T05:56:20.511Z,3.90
2018-09-28T05:58:53.622Z,3.70
2018-09-28T06:01:26.972Z,3.30
2018-09-28T06:03:59.785Z,4.03
2018-09-28T06:06:27.142Z,4.05
2018-09-28T06:08:55.125Z,4.30
2018-09-28T06:11:22.758Z,3.70
2018-09-28T06:13:51.421Z,3.62
2018-09-28T06:16:18.779Z,3.20
2018-09-28T06:18:46.658Z,3.80
2018-09-28T06:21:14.049Z,3.60
2018-09-28T06:23:41.380Z,3.70
2018-09-28T06:26:09.050Z,3.70
2018-09-28T06:28:36.757Z,3.70
2018-09-28T06:31:04.393Z,4.00
2018-09-28T06:33:32.314Z,3.87
2018-09-28T06:35:59.767Z,3.60
2018-09-28T06:38:27.122Z,3.87
2018-09-28T06:40:55.122Z,3.67
2018-09-28T06:43:22.489Z,4.05
2018-09-28T06:45:51.636Z,3.70
2018-09-28T06:48:19.488Z,3.50
2018-09-28T06:50:47.241Z,3.60
2018-09-28T06:53:14.870Z,3.30
2018-09-28T06:55:42.452Z,3.50
2018-09-28T06:58:10.545Z,3.50
2018-09-28T07:00:38.157Z,3.50
2018-09-28T07:03:05.485Z,9.68
2018-09-28T07:05:32.773Z,3.40
2018-09-28T07:08:00.877Z,4.85
2018-09-28T07:10:28.212Z,4.95
2018-09-28T07:12:55.603Z,4.95
2018-09-28T07:15:23.747Z,3.12
2018-09-28T07:17:51.170Z,4.00
2018-09-28T07:20:18.543Z,3.10
2018-09-28T07:22:46.605Z,3.00
2018-09-28T07:25:14.309Z,3.62
2018-09-28T07:27:42.736Z,3.00
2018-09-28T07:30:11.182Z,3.08
2018-09-28T07:32:38.893Z,3.40
2018-09-28T07:35:06.297Z,3.17
2018-09-28T07:37:33.662Z,2.70
2018-09-28T07:40:01.577Z,2.98
2018-09-28T07:42:28.956Z,3.20
2018-09-28T07:44:56.664Z,3.40
2018-09-28T07:47:24.361Z,3.90
2018-09-28T07:49:51.690Z,6.20
2018-09-28T07:52:19.325Z,4.50
2018-09-28T07:54:47.594Z,6.05
2018-09-28T07:57:15.737Z,4.70
2018-09-28T07:59:43.097Z,4.20
2018-09-28T08:02:10.634Z,3.73
2018-09-28T08:04:38.609Z,5.00
2018-09-28T08:07:06.472Z,3.60
2018-09-28T08:09:34.020Z,3.00
2018-09-28T08:12:02.109Z,2.80
2018-09-28T08:14:30.432Z,3.00
2018-09-28T08:16:57.780Z,2.70
2018-09-28T08:19:25.404Z,3.30
2018-09-28T08:21:53.073Z,3.40
2018-09-28T08:24:20.478Z,4.65
2018-09-28T08:26:48.398Z,4.20
2018-09-28T08:29:16.260Z,4.37
2018-09-28T08:31:43.642Z,3.12
2018-09-28T08:34:10.968Z,3.55
2018-09-28T08:36:38.968Z,3.30
2018-09-28T08:39:06.842Z,2.62
2018-09-28T08:41:34.736Z,3.60
2018-09-28T08:44:03.268Z,3.58
2018-09-28T08:46:30.637Z,4.62
2018-09-28T08:48:57.977Z,3.05
2018-09-28T08:51:25.664Z,5.00
2018-09-28T08:53:53.364Z,3.72
2018-09-28T08:56:21.317Z,3.20
2018-09-28T08:58:49.306Z,2.90
2018-09-28T09:01:16.873Z,3.20
2018-09-28T09:03:44.701Z,2.70
2018-09-28T09:06:12.041Z,3.50
2018-09-28T09:08:39.676Z,2.85
2018-09-28T09:11:07.626Z,2.62
2018-09-28T09:13:35.796Z,2.80
2018-09-28T09:16:03.186Z,2.40
2018-09-28T09:18:30.814Z,2.90
2018-09-28T09:20:58.435Z,2.98
2018-09-28T09:23:25.816Z,2.67
2018-09-28T09:25:53.164Z,2.37
2018-09-28T09:28:21.174Z,3.05
2018-09-28T09:30:48.845Z,2.70
2018-09-28T09:33:16.817Z,2.85
2018-09-28T09:35:45.402Z,3.20
2018-09-28T09:38:12.862Z,2.58
2018-09-28T09:40:40.882Z,3.00
2018-09-28T09:43:09.003Z,3.00
2018-09-28T09:45:36.360Z,2.22
2018-09-28T09:48:03.712Z,2.80
2018-09-28T09:50:32.034Z,2.50
2018-09-28T09:52:59.414Z,2.60
2018-09-28T09:55:27.493Z,2.85
2018-09-28T09:57:56.206Z,2.33
2018-09-28T10:00:28.988Z,2.80
2018-09-28T10:03:02.278Z,2.60
2018-09-28T10:05:30.301Z,3.15
2018-09-28T10:07:58.552Z,2.70
2018-09-28T10:10:27.424Z,2.98
2018-09-28T10:12:54.927Z,2.60
2018-09-28T10:15:22.892Z,2.58
2018-09-28T10:17:50.553Z,2.70
2018-09-28T10:20:18.545Z,2.02
2018-09-28T10:22:45.921Z,2.20
2018-09-28T10:25:13.554Z,2.30
2018-09-28T10:27:41.012Z,2.15
2018-09-28T10:30:08.423Z,2.10
2018-09-28T10:32:36.157Z,2.87
2018-09-28T10:35:03.894Z,2.55
2018-09-28T10:37:31.500Z,2.83
2018-09-28T10:39:59.480Z,2.58
2018-09-28T10:42:27.132Z,2.90
2018-09-28T10:44:54.668Z,2.60
2018-09-28T10:47:22.578Z,2.08
2018-09-28T10:49:49.961Z,2.25
2018-09-28T10:52:17.749Z,2.37
2018-09-28T10:54:45.057Z,3.80
2018-09-28T10:57:13.464Z,2.92
2018-09-28T10:59:41.121Z,2.90
2018-09-28T11:02:08.438Z,2.30
2018-09-28T11:04:36.428Z,2.70
2018-09-28T11:07:04.089Z,2.47
2018-09-28T11:09:31.501Z,2.50
2018-09-28T11:11:58.823Z,2.40
2018-09-28T11:14:26.238Z,2.33
2018-09-28T11:16:53.908Z,2.00
2018-09-28T11:19:21.277Z,1.90
2018-09-28T11:21:49.611Z,2.00
2018-09-28T11:24:16.836Z,1.80
2018-09-28T11:26:44.716Z,2.00
2018-09-28T11:29:13.401Z,2.30
2018-09-28T11:31:40.791Z,2.30
2018-09-28T11:34:08.156Z,2.52
2018-09-28T11:36:35.811Z,2.12
2018-09-28T11:39:05.018Z,2.17
2018-09-28T11:41:32.780Z,2.00
2018-09-28T11:44:01.068Z,2.35
2018-09-28T11:46:28.812Z,1.80
2018-09-28T11:48:56.244Z,2.00
2018-09-28T11:51:24.486Z,2.17
2018-09-28T11:53:52.832Z,2.50
2018-09-28T11:56:20.289Z,2.10
2018-09-28T11:58:47.634Z,2.02
2018-09-28T12:01:15.208Z,2.10
2018-09-28T12:03:42.623Z,1.92
2018-09-28T12:06:11.039Z,2.20
2018-09-28T12:08:38.697Z,2.98
2018-09-28T12:11:06.985Z,1.92
2018-09-28T12:13:34.903Z,1.65
2018-09-28T12:16:02.801Z,2.52
2018-09-28T12:18:30.440Z,2.50
2018-09-28T12:20:58.115Z,1.50
2018-09-28T12:23:26.098Z,2.20
2018-09-28T12:25:53.668Z,1.72
2018-09-28T12:28:21.011Z,1.80
2018-09-28T12:30:48.666Z,1.70
2018-09-28T12:33:16.280Z,2.12
2018-09-28T12:35:43.909Z,1.40
2018-09-28T12:38:11.280Z,1.55
2018-09-28T12:40:39.649Z,1.57
2018-09-28T12:43:07.022Z,1.87
2018-09-28T12:45:34.348Z,2.53
2018-09-28T12:48:01.855Z,2.03
2018-09-28T12:55:29.150Z,1.98
2018-09-28T12:57:56.569Z,2.00
2018-09-28T13:00:24.426Z,1.90
2018-09-28T13:02:51.803Z,1.90
2018-09-28T13:05:19.757Z,1.50
2018-09-28T13:07:47.121Z,1.50
2018-09-28T13:10:14.505Z,2.37
2018-09-28T13:12:42.214Z,1.30
2018-09-28T13:15:09.826Z,2.40
2018-09-28T13:17:37.218Z,2.60
2018-09-28T13:20:04.906Z,1.90
2018-09-28T13:22:32.597Z,2.80
2018-09-28T13:24:59.916Z,2.67
2018-09-28T13:27:27.589Z,1.57
2018-09-28T13:29:55.246Z,1.47
2018-09-28T13:32:22.709Z,2.35
2018-09-28T13:34:50.009Z,1.80
2018-09-28T13:37:17.602Z,1.90
2018-09-28T13:39:45.031Z,2.00
2018-09-28T13:42:13.235Z,2.60
2018-09-28T13:44:40.693Z,2.30
2018-09-28T13:47:08.124Z,1.95
2018-09-28T13:49:35.789Z,1.85
2018-09-28T13:52:03.263Z,2.00
2018-09-28T13:54:30.680Z,1.90
2018-09-28T13:56:57.993Z,2.00
2018-09-28T13:59:25.365Z,1.70
2018-09-28T14:01:53.194Z,1.25
2018-09-28T14:04:20.903Z,1.70
2018-09-28T14:06:48.316Z,1.57
2018-09-28T14:09:15.841Z,1.62
2018-09-28T14:11:43.204Z,2.00
2018-09-28T14:14:10.976Z,2.70
2018-09-28T14:16:38.655Z,2.80
2018-09-28T14:19:06.197Z,2.30
2018-09-28T14:21:34.452Z,1.60
2018-09-28T14:24:01.808Z,1.50
2018-09-28T14:26:29.169Z,1.60
2018-09-28T14:28:56.853Z,1.40
2018-09-28T14:31:24.480Z,1.90
2018-09-28T14:33:51.942Z,1.60
2018-09-28T14:36:20.043Z,1.40
2018-09-28T14:38:47.399Z,1.40
2018-09-28T14:41:15.308Z,1.40
2018-09-28T14:43:42.686Z,1.90
2018-09-28T14:46:11.011Z,3.37
2018-09-28T14:48:38.380Z,1.60
2018-09-28T14:51:06.269Z,3.00
2018-09-28T14:53:33.601Z,2.00
2018-09-28T14:56:01.162Z,2.50
2018-09-28T14:58:28.852Z,1.90
2018-09-28T15:00:56.797Z,1.70
2018-09-28T15:03:24.077Z,1.30
2018-09-28T15:05:52.357Z,2.40
2018-09-28T15:08:19.985Z,2.00
2018-09-28T15:10:47.918Z,1.77
2018-09-28T15:13:15.251Z,2.10
2018-09-28T15:15:42.615Z,1.98
2018-09-28T15:18:10.310Z,1.63
2018-09-28T15:20:37.734Z,1.52
2018-09-28T15:23:05.302Z,1.95
2018-09-28T15:25:32.653Z,1.98
2018-09-28T15:28:00.313Z,1.98
2018-09-28T15:30:28.436Z,1.85
2018-09-28T15:32:56.066Z,2.22
2018-09-28T15:35:23.889Z,2.10
2018-09-28T15:37:51.730Z,1.70
2018-09-28T15:40:19.066Z,1.87
2018-09-28T15:42:46.796Z,1.80
2018-09-28T15:45:15.732Z,2.27
2018-09-28T15:47:43.464Z,2.90
2018-09-28T15:50:11.705Z,3.55
2018-09-28T15:52:39.473Z,3.37
2018-09-28T15:55:07.212Z,2.10
2018-09-28T15:57:34.893Z,2.70
2018-09-28T16:00:03.029Z,1.80
2018-09-28T16:02:30.384Z,2.62
2018-09-28T16:04:58.346Z,2.60
2018-09-28T16:07:25.701Z,4.17
2018-09-28T16:09:53.389Z,4.25
2018-09-28T16:12:21.064Z,4.70
2018-09-28T16:14:48.747Z,2.97
2018-09-28T16:17:16.074Z,4.47
2018-09-28T16:19:44.066Z,2.90
2018-09-28T16:22:11.694Z,2.83
2018-09-28T16:24:39.657Z,2.50
2018-09-28T16:27:07.010Z,2.12
2018-09-28T16:29:34.368Z,2.22
2018-09-28T16:32:02.476Z,2.30
2018-09-28T16:34:29.836Z,2.40
2018-09-28T16:36:57.802Z,2.70
2018-09-28T16:39:25.199Z,3.00
2018-09-28T16:41:52.658Z,2.55
2018-09-28T16:44:20.000Z,2.33
2018-09-28T16:46:47.753Z,2.00
2018-09-28T16:49:15.095Z,2.52
2018-09-28T16:51:42.539Z,2.20
2018-09-28T16:54:09.926Z,1.95
2018-09-28T16:56:37.607Z,2.58
2018-09-28T16:59:05.017Z,2.10
2018-09-28T17:01:32.844Z,1.60
2018-09-28T17:04:00.315Z,2.00
2018-09-28T17:06:28.177Z,2.00
2018-09-28T17:08:56.721Z,2.00
2018-09-28T17:11:25.303Z,1.60
2018-09-28T17:13:52.713Z,1.92
2018-09-28T17:16:20.892Z,2.00
2018-09-28T17:18:48.292Z,1.80
2018-09-28T17:21:15.679Z,2.00
2018-09-28T17:23:43.043Z,2.62
2018-09-28T17:26:10.373Z,2.87
2018-09-28T17:28:37.946Z,2.20
2018-09-28T17:31:05.563Z,1.90
2018-09-28T17:33:33.222Z,2.00
2018-09-28T17:36:00.873Z,1.95
2018-09-28T17:38:28.321Z,2.00
2018-09-28T17:40:55.679Z,2.00
2018-09-28T17:43:23.133Z,3.60
2018-09-28T17:45:50.917Z,1.82
2018-09-28T17:48:18.330Z,2.45
2018-09-28T17:50:46.012Z,2.08
2018-09-28T17:53:13.898Z,3.00
2018-09-28T17:55:41.486Z,3.10
2018-09-28T17:58:08.913Z,4.80
2018-09-28T18:00:36.568Z,25.52
2018-09-28T18:03:04.131Z,9.97
2018-09-28T18:05:31.650Z,4.05
2018-09-28T18:07:59.257Z,2.10
2018-09-28T18:10:26.976Z,2.17
2018-09-28T18:12:54.467Z,2.00
2018-09-28T18:15:22.070Z,2.27
2018-09-28T18:17:49.920Z,2.30
2018-09-28T18:20:17.371Z,5.45
2018-09-28T18:22:44.657Z,3.50
2018-09-28T18:25:12.149Z,3.05
2018-09-28T18:27:39.516Z,4.50
2018-09-28T18:30:06.899Z,3.77
2018-09-28T18:32:34.314Z,4.55
2018-09-28T18:35:02.148Z,5.35
2018-09-28T18:37:29.506Z,7.90
2018-09-28T18:39:57.094Z,10.58
2018-09-28T18:42:24.918Z,3.80
2018-09-28T18:44:52.249Z,2.27
2018-09-28T18:47:19.628Z,2.10
2018-09-28T18:49:47.313Z,2.47
2018-09-28T18:52:14.677Z,2.00
2018-09-28T18:54:42.062Z,5.70
2018-09-28T18:57:09.464Z,2.10
2018-09-28T18:59:37.097Z,3.33
2018-09-28T19:02:04.534Z,2.12
2018-09-28T19:04:31.869Z,2.10
2018-09-28T19:06:59.242Z,2.00
2018-09-28T19:09:26.598Z,2.15
2018-09-28T19:11:54.305Z,1.50
2018-09-28T19:14:21.615Z,2.00
2018-09-28T19:16:49.209Z,1.90
2018-09-28T19:19:16.580Z,2.40
2018-09-28T19:21:44.230Z,2.60
2018-09-28T19:24:11.569Z,3.10
2018-09-28T19:26:38.948Z,3.50
2018-09-28T19:29:06.698Z,3.30
2018-09-28T19:31:34.470Z,2.83
2018-09-28T19:34:01.810Z,2.33
2018-09-28T19:36:29.481Z,2.42
2018-09-28T19:38:57.673Z,2.10
2018-09-28T19:41:24.986Z,1.80
2018-09-28T19:43:52.999Z,2.10
2018-09-28T19:46:20.674Z,1.60
2018-09-28T19:48:48.057Z,2.20
2018-09-28T19:51:15.476Z,2.00
2018-09-28T19:53:42.828Z,3.00
2018-09-28T19:56:10.381Z,4.53
2018-09-28T19:58:37.822Z,2.30
2018-09-28T20:01:05.606Z,2.00
2018-09-28T20:03:33.643Z,1.90
2018-09-28T20:06:01.066Z,2.37
2018-09-28T20:08:28.392Z,1.70
2018-09-28T20:10:55.765Z,2.10
2018-09-28T20:13:23.129Z,1.60
2018-09-28T20:15:50.428Z,2.30
2018-09-28T20:18:17.818Z,2.85
2018-09-28T20:20:45.567Z,7.22
2018-09-28T20:23:12.917Z,2.47
2018-09-28T20:25:40.897Z,2.17
2018-09-28T20:28:08.306Z,2.27
2018-09-28T20:30:36.001Z,2.00
2018-09-28T20:33:03.345Z,1.95
2018-09-28T20:35:31.019Z,2.10
2018-09-28T20:37:58.458Z,2.00
2018-09-28T20:40:25.816Z,2.52
2018-09-28T20:42:53.241Z,2.27
2018-09-28T20:45:20.666Z,2.00
2018-09-28T20:47:48.330Z,2.27
2018-09-28T20:50:16.072Z,2.10
2018-09-28T20:52:43.810Z,4.12
2018-09-28T20:55:11.190Z,5.37
2018-09-28T20:57:38.573Z,4.42
2018-09-28T21:00:06.186Z,3.02
2018-09-28T21:02:33.654Z,2.15
2018-09-28T21:05:01.308Z,2.20
2018-09-28T21:07:28.674Z,1.90
2018-09-28T21:09:56.354Z,2.50
2018-09-28T21:12:23.786Z,2.30
2018-09-28T21:14:51.158Z,1.70
2018-09-28T21:17:18.599Z,2.25
2018-09-28T21:19:45.977Z,2.00
2018-09-28T21:22:13.348Z,2.33
2018-09-28T21:24:40.756Z,1.90
2018-09-28T21:27:08.313Z,2.02
2018-09-28T21:29:35.929Z,2.00
2018-09-28T21:32:03.354Z,1.80
2018-09-28T21:34:30.787Z,2.10
2018-09-28T21:36:58.497Z,1.90
2018-09-28T21:39:25.941Z,1.80
2018-09-28T21:41:53.303Z,2.00
2018-09-28T21:44:20.923Z,1.73
2018-09-28T21:46:48.213Z,1.98
2018-09-28T21:49:15.582Z,1.57
2018-09-28T21:51:43.173Z,1.80
2018-09-28T21:54:10.752Z,1.92
2018-09-28T21:56:38.130Z,1.70
2018-09-28T21:59:05.510Z,2.02
2018-09-28T22:01:32.885Z,1.70
2018-09-28T22:04:00.232Z,1.98
2018-09-28T22:06:27.853Z,1.75
2018-09-28T22:08:55.525Z,1.90
2018-09-28T22:11:22.837Z,1.80
2018-09-28T22:13:50.282Z,1.70
2018-09-28T22:16:17.692Z,1.70
2018-09-28T22:18:45.381Z,1.57
2018-09-28T22:21:12.774Z,1.70
2018-09-28T22:23:40.192Z,2.00
2018-09-28T22:26:07.577Z,1.30
2018-09-28T22:28:34.965Z,1.60
2018-09-28T22:31:02.335Z,1.40
2018-09-28T22:33:29.937Z,1.50
2018-09-28T22:35:57.349Z,1.85
2018-09-28T22:38:24.958Z,1.57
2018-09-28T22:40:52.610Z,1.87
2018-09-28T22:43:20.018Z,1.77
2018-09-28T22:45:47.518Z,1.50
2018-09-28T22:48:15.254Z,1.70
2018-09-28T22:50:42.660Z,2.00
2018-09-28T22:53:10.362Z,1.80
2018-09-28T22:55:38.166Z,1.80
2018-09-28T22:58:05.833Z,1.70
2018-09-28T23:00:33.341Z,2.08
2018-09-28T23:03:00.644Z,1.70
2018-09-28T23:05:28.438Z,1.90
2018-09-28T23:07:56.054Z,1.70
2018-09-28T23:10:24.329Z,1.70
2018-09-28T23:12:51.679Z,1.52
2018-09-28T23:15:19.053Z,2.00
2018-09-28T23:17:46.474Z,1.67
2018-09-28T23:20:14.395Z,1.62
2018-09-28T23:22:42.048Z,1.70
2018-09-28T23:25:09.623Z,1.60
2018-09-28T23:27:37.021Z,1.50
2018-09-28T23:30:04.452Z,1.90
2018-09-28T23:32:31.814Z,1.65
2018-09-28T23:34:59.190Z,1.90
2018-09-28T23:37:26.889Z,1.70
2018-09-28T23:39:54.589Z,1.60
2018-09-28T23:42:21.971Z,1.82
2018-09-28T23:44:49.559Z,1.40
2018-09-28T23:47:16.958Z,1.70
2018-09-28T23:49:44.329Z,1.90
2018-09-28T23:52:11.677Z,1.50
2018-09-28T23:54:39.250Z,1.80
2018-09-28T23:57:06.718Z,1.62
2018-09-28T23:59:34.126Z,2.00
